Time;durP1;ratioP1;P1;durP2;ratioP2;P2;SDS_P1;SDS_P2;PMS_P1;PMS_P2;Temp;Humidity;BMP_temperature;BMP_pressure;BME280_temperature;BME280_humidity;BME280_pressure;Samples;Min_cycle;Max_cycle;Signal;HPM_P1;HPM_P2
2021/06/01 00:00:18;;;;;;;4.67;3.20;;;11.10;99.90;;;;;;4092197;29;20039;-63
2021/06/01 00:02:20;;;;;;;5.27;3.17;;;11.10;99.90;;;;;;4108738;28;20793;-66
2021/06/01 00:04:21;;;;;;;4.50;3.20;;;11.10;99.90;;;;;;4109897;28;20081;-64
2021/06/01 00:06:22;;;;;;;4.23;2.90;;;11.10;99.90;;;;;;4108563;28;20371;-69
2021/06/01 00:08:24;;;;;;;3.40;2.77;;;11.10;99.90;;;;;;4117836;28;20097;-64
2021/06/01 00:10:26;;;;;;;6.40;2.90;;;11.10;99.90;;;;;;4124934;28;20042;-65
2021/06/01 00:12:27;;;;;;;3.20;2.60;;;11.10;99.90;;;;;;4126342;28;21291;-64
2021/06/01 00:14:28;;;;;;;2.97;2.23;;;11.10;99.90;;;;;;4124671;28;20434;-64
2021/06/01 00:16:29;;;;;;;3.80;2.60;;;11.10;99.90;;;;;;4126007;28;20077;-63
2021/06/01 00:18:30;;;;;;;2.70;2.50;;;11.10;99.90;;;;;;4124160;28;20034;-63
2021/06/01 00:20:31;;;;;;;4.17;3.47;;;11.10;99.90;;;;;;4123808;28;20043;-63
2021/06/01 00:22:33;;;;;;;4.47;3.30;;;11.00;99.90;;;;;;4124532;28;20742;-63
2021/06/01 00:24:34;;;;;;;6.50;2.97;;;11.00;99.90;;;;;;4125750;28;20785;-63
2021/06/01 00:26:38;;;;;;;4.57;2.90;;;11.00;99.90;;;;;;4124474;28;20101;-64
2021/06/01 00:28:40;;;;;;;3.60;2.70;;;11.00;99.90;;;;;;4097878;28;20110;-64
2021/06/01 00:30:41;;;;;;;3.87;2.90;;;11.00;99.90;;;;;;4109731;28;20541;-62
2021/06/01 00:32:43;;;;;;;3.50;2.77;;;11.00;99.90;;;;;;4108555;28;20451;-63
2021/06/01 00:34:44;;;;;;;3.37;2.60;;;10.90;99.90;;;;;;4109322;28;20058;-64
2021/06/01 00:36:45;;;;;;;4.37;3.40;;;10.90;99.90;;;;;;4108044;28;20031;-63
2021/06/01 00:38:46;;;;;;;2.40;2.10;;;10.90;99.90;;;;;;4091801;29;20051;-64
2021/06/01 00:40:48;;;;;;;5.27;3.17;;;10.90;99.90;;;;;;4108243;28;20101;-63
2021/06/01 00:42:49;;;;;;;4.30;3.37;;;10.90;99.90;;;;;;4109804;28;20557;-63
2021/06/01 00:44:51;;;;;;;3.80;2.70;;;10.80;99.90;;;;;;4108340;28;20035;-63
2021/06/01 00:46:52;;;;;;;5.60;3.13;;;10.80;99.90;;;;;;4109118;28;20562;-64
2021/06/01 00:48:53;;;;;;;5.03;3.00;;;10.80;99.90;;;;;;4107749;28;20086;-63
2021/06/01 00:50:54;;;;;;;6.03;4.17;;;10.80;99.90;;;;;;4108111;28;20042;-63
2021/06/01 00:52:56;;;;;;;3.37;2.83;;;10.80;99.90;;;;;;4107735;28;20047;-63
2021/06/01 00:54:58;;;;;;;3.37;2.53;;;10.80;99.90;;;;;;4108855;28;20183;-63
2021/06/01 00:56:59;;;;;;;4.30;3.00;;;10.80;99.90;;;;;;4107367;28;20499;-63
2021/06/01 00:59:00;;;;;;;4.70;2.40;;;10.80;99.90;;;;;;4091190;29;20035;-63
2021/06/01 01:03:08;;;;;;;3.47;2.63;;;10.80;99.90;;;;;;4108385;28;20506;-64
2021/06/01 01:05:12;;;;;;;3.73;2.53;;;10.80;99.90;;;;;;4108863;28;20030;-65
2021/06/01 01:07:31;;;;;;;4.60;2.83;;;10.80;99.90;;;;;;4115815;28;20062;-63
2021/06/01 01:09:36;;;;;;;4.27;3.27;;;10.80;99.90;;;;;;4124946;28;20104;-63
2021/06/01 01:11:40;;;;;;;4.97;3.03;;;10.80;99.90;;;;;;4123221;28;20049;-63
2021/06/01 01:13:53;;;;;;;5.20;3.00;;;10.80;99.90;;;;;;4124667;28;20088;-65
2021/06/01 01:15:55;;;;;;;4.67;2.80;;;10.80;99.90;;;;;;4120996;28;20109;-63
2021/06/01 01:18:01;;;;;;;5.27;3.17;;;10.80;99.90;;;;;;4124784;28;20521;-64
2021/06/01 01:20:23;;;;;;;3.73;2.83;;;10.80;99.90;;;;;;4122340;28;20495;-63
2021/06/01 01:22:26;;;;;;;5.13;3.50;;;10.80;99.90;;;;;;4123947;28;20166;-63
2021/06/01 01:24:52;;;;;;;4.77;3.00;;;10.80;99.90;;;;;;4124117;28;20034;-66
2021/06/01 01:26:59;;;;;;;4.57;3.00;;;10.80;99.90;;;;;;4124283;28;20510;-63
2021/06/01 01:29:10;;;;;;;4.77;3.40;;;10.80;99.90;;;;;;4123458;28;20053;-64
2021/06/01 01:31:19;;;;;;;3.80;3.10;;;10.70;99.90;;;;;;4123039;28;20096;-63
2021/06/01 01:33:30;;;;;;;3.30;2.80;;;10.70;99.90;;;;;;4123660;28;20026;-63
2021/06/01 01:35:32;;;;;;;3.95;3.53;;;10.70;99.90;;;;;;4123905;28;20033;-63
2021/06/01 01:37:35;;;;;;;4.03;3.00;;;10.70;99.90;;;;;;4123130;28;20093;-71
2021/06/01 01:39:43;;;;;;;4.60;2.73;;;10.70;99.90;;;;;;4124647;28;20085;-64
2021/06/01 01:41:46;;;;;;;6.17;2.93;;;10.70;99.90;;;;;;4105648;28;20070;-63
2021/06/01 01:43:51;;;;;;;4.03;3.40;;;10.70;99.90;;;;;;4124357;28;20411;-63
2021/06/01 01:46:02;;;;;;;5.73;3.00;;;10.70;99.90;;;;;;4123242;28;20097;-64
2021/06/01 01:50:24;;;;;;;;;;;10.70;99.90;;;;;;4124189;28;19984;-64
2021/06/01 01:52:25;;;;;;;3.33;2.47;;;10.70;99.90;;;;;;4124500;28;20366;-64
2021/06/01 01:54:31;;;;;;;4.33;3.07;;;10.60;99.90;;;;;;4105833;28;20050;-63
2021/06/01 01:56:37;;;;;;;4.20;3.00;;;10.60;99.90;;;;;;4124268;28;20022;-64
2021/06/01 01:58:39;;;;;;;3.20;2.80;;;10.60;99.90;;;;;;4123173;28;20039;-62
2021/06/01 02:00:41;;;;;;;3.33;2.73;;;10.60;99.90;;;;;;4122714;28;20082;-64
2021/06/01 02:02:47;;;;;;;4.33;3.23;;;10.60;99.90;;;;;;4123224;28;20536;-64
2021/06/01 02:04:49;;;;;;;3.27;2.63;;;10.60;99.90;;;;;;4123837;28;20105;-64
2021/06/01 02:06:51;;;;;;;5.73;2.70;;;10.60;99.90;;;;;;4123196;28;20690;-66
2021/06/01 02:08:52;;;;;;;5.47;2.77;;;10.60;99.90;;;;;;4124006;28;20030;-63
2021/06/01 02:10:54;;;;;;;6.57;3.37;;;10.60;99.90;;;;;;4122965;28;20092;-64
2021/06/01 02:12:55;;;;;;;3.47;2.53;;;10.60;99.90;;;;;;4123942;28;20525;-63
2021/06/01 02:14:56;;;;;;;7.20;3.00;;;10.60;99.90;;;;;;4121425;28;20037;-65
2021/06/01 02:16:58;;;;;;;5.10;2.87;;;10.60;99.90;;;;;;4123645;28;20077;-63
2021/06/01 02:19:01;;;;;;;3.37;2.83;;;10.60;99.90;;;;;;4123018;28;20018;-63
2021/06/01 02:21:08;;;;;;;5.70;2.90;;;10.60;99.90;;;;;;4122822;28;20046;-64
2021/06/01 02:25:38;;;;;;;4.13;2.87;;;10.70;99.90;;;;;;4124283;28;20042;-64
2021/06/01 02:27:55;;;;;;;5.33;2.70;;;10.70;99.90;;;;;;4122657;28;20117;-63
2021/06/01 02:30:02;;;;;;;3.93;2.93;;;10.70;99.90;;;;;;4122839;28;20081;-70
2021/06/01 02:32:06;;;;;;;4.70;2.73;;;10.70;99.90;;;;;;4122267;28;20038;-63
2021/06/01 02:34:08;;;;;;;7.33;2.73;;;10.70;99.90;;;;;;4105349;28;20817;-68
2021/06/01 02:36:14;;;;;;;3.40;3.07;;;10.70;99.90;;;;;;4123425;28;20022;-64
2021/06/01 02:38:18;;;;;;;3.80;2.30;;;10.60;99.90;;;;;;4123020;28;20584;-63
2021/06/01 02:40:22;;;;;;;4.20;2.80;;;10.60;99.90;;;;;;4123530;28;20482;-64
2021/06/01 02:42:24;;;;;;;7.83;2.73;;;10.60;99.90;;;;;;4123339;28;20701;-64
2021/06/01 02:44:25;;;;;;;3.47;2.50;;;10.60;99.90;;;;;;4123934;28;20031;-63
2021/06/01 02:46:26;;;;;;;7.57;3.50;;;10.60;99.90;;;;;;4121420;28;20062;-64
2021/06/01 02:48:29;;;;;;;7.13;2.73;;;10.50;99.90;;;;;;4107698;28;20039;-63
2021/06/01 02:50:31;;;;;;;4.30;2.50;;;10.50;99.90;;;;;;4106754;28;20110;-64
2021/06/01 02:52:33;;;;;;;3.87;3.10;;;10.50;99.90;;;;;;4108002;28;20035;-67
2021/06/01 02:54:34;;;;;;;4.17;2.87;;;10.50;99.90;;;;;;4106529;28;20475;-64
2021/06/01 02:56:36;;;;;;;4.43;2.80;;;10.50;99.90;;;;;;4108152;28;20023;-63
2021/06/01 02:58:40;;;;;;;5.57;3.00;;;10.50;99.90;;;;;;4106271;28;20031;-63
2021/06/01 03:00:43;;;;;;;4.33;3.20;;;10.50;99.90;;;;;;4107478;28;20094;-64
2021/06/01 03:02:44;;;;;;;5.70;3.50;;;10.50;99.90;;;;;;4106492;28;20077;-63
2021/06/01 03:04:53;;;;;;;5.23;3.57;;;10.50;99.90;;;;;;4107710;28;20431;-63
2021/06/01 03:06:54;;;;;;;6.30;3.30;;;10.50;99.90;;;;;;4106549;28;20483;-64
2021/06/01 03:08:55;;;;;;;3.80;2.80;;;10.50;99.90;;;;;;4107270;28;20043;-63
2021/06/01 03:11:00;;;;;;;6.17;3.00;;;10.50;99.90;;;;;;4106926;28;20102;-63
2021/06/01 03:13:01;;;;;;;3.80;2.90;;;10.60;99.90;;;;;;4106944;28;20035;-63
2021/06/01 03:15:04;;;;;;;4.87;3.23;;;10.80;99.90;;;;;;4107278;28;20031;-63
2021/06/01 03:17:05;;;;;;;3.50;3.17;;;11.00;99.90;;;;;;4106099;28;20031;-64
2021/06/01 03:19:08;;;;;;;4.67;3.60;;;11.30;99.90;;;;;;4104094;28;20042;-64
2021/06/01 03:21:10;;;;;;;4.20;2.93;;;11.70;99.90;;;;;;4120914;28;20050;-64
2021/06/01 03:23:11;;;;;;;3.70;3.30;;;12.10;99.90;;;;;;4123500;28;20135;-66
2021/06/01 03:25:13;;;;;;;3.10;2.73;;;12.60;99.90;;;;;;4122692;28;20073;-63
2021/06/01 03:27:14;;;;;;;4.60;2.93;;;12.80;99.90;;;;;;4124670;28;20038;-64
2021/06/01 03:29:15;;;;;;;6.63;2.80;;;12.90;99.90;;;;;;4125001;28;20533;-67
2021/06/01 03:31:18;;;;;;;4.93;2.50;;;13.00;99.90;;;;;;4125928;28;20112;-64
2021/06/01 03:33:19;;;;;;;5.27;2.77;;;13.00;99.90;;;;;;4124846;28;20576;-64
2021/06/01 03:35:21;;;;;;;3.70;2.70;;;13.30;99.90;;;;;;4111935;28;20042;-70
2021/06/01 03:37:22;;;;;;;4.43;2.87;;;13.70;99.90;;;;;;4108907;28;20093;-64
2021/06/01 03:39:23;;;;;;;5.57;3.00;;;14.20;99.90;;;;;;4109526;28;20085;-64
2021/06/01 03:41:26;;;;;;;4.77;2.47;;;14.70;99.90;;;;;;4109298;28;20031;-64
2021/06/01 03:43:27;;;;;;;7.57;2.67;;;15.40;99.90;;;;;;4109900;28;20057;-64
2021/06/01 03:45:28;;;;;;;5.87;2.40;;;16.00;99.90;;;;;;4109351;28;20085;-67
2021/06/01 03:47:29;;;;;;;4.07;2.10;;;16.50;99.90;;;;;;4109616;28;20081;-68
2021/06/01 03:49:32;;;;;;;3.70;2.40;;;16.70;99.90;;;;;;4108952;28;20109;-64
2021/06/01 03:51:33;;;;;;;3.10;2.50;;;16.70;99.90;;;;;;4108923;28;20089;-64
2021/06/01 03:53:34;;;;;;;5.40;2.23;;;16.60;99.90;;;;;;4110196;28;20090;-64
2021/06/01 03:55:36;;;;;;;4.07;2.53;;;16.50;99.90;;;;;;4109287;28;20038;-65
2021/06/01 03:57:37;;;;;;;5.22;2.45;;;16.50;99.90;;;;;;4109826;28;20486;-64
2021/06/01 03:59:39;;;;;;;2.72;2.50;;;16.90;99.90;;;;;;4108631;28;20541;-63
2021/06/01 04:01:40;;;;;;;4.80;2.35;;;16.90;99.90;;;;;;4111206;28;20103;-64
2021/06/01 04:03:41;;;;;;;2.65;2.33;;;16.40;99.90;;;;;;4108453;28;20035;-64
2021/06/01 04:05:42;;;;;;;4.18;2.08;;;16.60;99.90;;;;;;4108985;28;20050;-64
2021/06/01 04:07:45;;;;;;;5.35;2.05;;;17.30;99.90;;;;;;4107897;28;20538;-62
2021/06/01 04:09:46;;;;;;;2.70;2.08;;;17.60;99.90;;;;;;4109779;28;20625;-64
2021/06/01 04:11:47;;;;;;;2.50;2.30;;;18.20;99.90;;;;;;4108119;28;20051;-67
2021/06/01 04:13:49;;;;;;;3.90;2.20;;;18.50;99.90;;;;;;4109439;28;20023;-71
2021/06/01 04:15:50;;;;;;;12.57;2.72;;;19.30;99.90;;;;;;4108914;28;20035;-65
2021/06/01 04:17:51;;;;;;;3.60;1.98;;;20.20;99.90;;;;;;4108821;28;20463;-64
2021/06/01 04:19:52;;;;;;;4.88;2.28;;;20.70;99.90;;;;;;4108221;28;20582;-64
2021/06/01 04:21:53;;;;;;;3.00;2.13;;;20.30;99.90;;;;;;4107614;28;20094;-65
2021/06/01 04:23:55;;;;;;;2.22;2.00;;;20.50;99.90;;;;;;4109176;28;20062;-64
2021/06/01 04:25:56;;;;;;;3.30;2.15;;;20.60;99.90;;;;;;4108624;28;20034;-63
2021/06/01 04:27:58;;;;;;;5.40;2.20;;;21.20;99.90;;;;;;4110307;28;20050;-64
2021/06/01 04:30:00;;;;;;;2.60;1.75;;;21.50;99.60;;;;;;4107310;28;20078;-68
2021/06/01 04:32:01;;;;;;;8.90;6.72;;;21.50;99.30;;;;;;4109774;28;20459;-64
2021/06/01 04:34:02;;;;;;;4.75;2.33;;;21.60;98.70;;;;;;4107625;28;20043;-64
2021/06/01 04:36:04;;;;;;;8.52;4.45;;;21.60;98.50;;;;;;4111716;28;20553;-64
2021/06/01 04:38:05;;;;;;;5.43;2.10;;;21.50;97.90;;;;;;4123546;28;20092;-64
2021/06/01 04:40:10;;;;;;;6.70;1.90;;;21.70;97.60;;;;;;4125399;28;20093;-63
2021/06/01 04:42:11;;;;;;;1.95;1.67;;;21.80;97.20;;;;;;4124211;28;20029;-63
2021/06/01 04:44:12;;;;;;;5.55;2.15;;;21.80;96.40;;;;;;4124100;28;20438;-64
2021/06/01 04:46:13;;;;;;;3.22;2.10;;;21.40;96.40;;;;;;4123701;28;20042;-67
2021/06/01 04:48:14;;;;;;;3.08;2.30;;;20.80;97.20;;;;;;4124449;28;20034;-68
2021/06/01 04:50:16;;;;;;;3.67;2.17;;;20.70;97.70;;;;;;4124579;28;20073;-64
2021/06/01 04:52:19;;;;;;;3.28;2.10;;;20.10;97.90;;;;;;4123282;28;20062;-65
2021/06/01 04:54:20;;;;;;;3.35;2.13;;;19.50;99.30;;;;;;4123979;28;20038;-66
2021/06/01 04:56:23;;;;;;;8.27;2.92;;;19.20;99.90;;;;;;4123434;28;20304;-65
2021/06/01 04:58:24;;;;;;;4.82;3.20;;;18.90;99.90;;;;;;4124812;28;20026;-64
2021/06/01 05:00:26;;;;;;;5.55;2.25;;;18.60;99.90;;;;;;4122742;28;20483;-63
2021/06/01 05:02:27;;;;;;;5.00;2.55;;;18.30;99.90;;;;;;4125214;28;20104;-63
2021/06/01 05:04:28;;;;;;;4.45;2.70;;;17.60;99.90;;;;;;4123478;28;20513;-63
2021/06/01 05:06:29;;;;;;;5.78;2.92;;;17.40;99.90;;;;;;4107013;28;20042;-64
2021/06/01 05:08:30;;;;;;;5.47;2.65;;;17.40;99.90;;;;;;4122759;28;20108;-64
2021/06/01 05:10:31;;;;;;;3.42;2.78;;;17.00;99.90;;;;;;4118436;28;20109;-62
2021/06/01 05:12:32;;;;;;;5.13;3.30;;;16.60;99.90;;;;;;4122833;28;20034;-63
2021/06/01 05:14:34;;;;;;;4.72;3.20;;;16.30;99.90;;;;;;4123600;28;20485;-69
2021/06/01 05:16:35;;;;;;;5.93;3.40;;;16.10;99.90;;;;;;4123235;28;20084;-63
2021/06/01 05:18:36;;;;;;;5.68;3.13;;;16.10;99.90;;;;;;4123260;28;20069;-63
2021/06/01 05:20:38;;;;;;;4.53;3.10;;;16.10;99.90;;;;;;4119335;28;20904;-66
2021/06/01 05:22:39;;;;;;;4.40;3.10;;;15.90;99.90;;;;;;4121389;28;20042;-62
2021/06/01 05:24:40;;;;;;;5.63;3.15;;;15.70;99.90;;;;;;4102975;28;20105;-63
2021/06/01 05:26:42;;;;;;;4.97;2.88;;;15.60;99.90;;;;;;4123318;28;20038;-70
2021/06/01 05:28:43;;;;;;;5.75;3.05;;;15.50;99.90;;;;;;4107923;28;20043;-65
2021/06/01 05:30:55;;;;;;;8.95;3.45;;;15.80;99.90;;;;;;4106814;28;20030;-63
2021/06/01 05:33:17;;;;;;;6.55;3.20;;;16.10;99.90;;;;;;4117411;28;20086;-68
2021/06/01 05:35:25;;;;;;;6.78;3.40;;;16.60;99.90;;;;;;4122243;28;20747;-70
2021/06/01 05:37:28;;;;;;;5.07;3.35;;;17.10;99.90;;;;;;4122374;28;20398;-64
2021/06/01 05:39:30;;;;;;;4.40;2.55;;;17.70;99.90;;;;;;4122054;28;20051;-64
2021/06/01 05:41:31;;;;;;;3.42;2.90;;;18.10;99.90;;;;;;4123362;28;20986;-64
2021/06/01 05:43:33;;;;;;;3.78;2.65;;;18.50;99.90;;;;;;4122752;28;20034;-63
2021/06/01 05:45:34;;;;;;;6.97;2.85;;;19.00;99.90;;;;;;4123578;28;20548;-65
2021/06/01 05:47:35;;;;;;;7.10;2.97;;;19.00;99.90;;;;;;4122030;28;20105;-62
2021/06/01 05:49:36;;;;;;;6.43;3.40;;;19.00;99.90;;;;;;4121799;28;20069;-61
2021/06/01 05:51:38;;;;;;;8.73;2.90;;;19.00;99.90;;;;;;4097930;28;20099;-62
2021/06/01 05:53:39;;;;;;;4.78;2.53;;;19.40;99.90;;;;;;4123958;28;20073;-62
2021/06/01 05:55:40;;;;;;;5.07;2.70;;;20.30;99.90;;;;;;4123716;28;20092;-64
2021/06/01 05:57:41;;;;;;;12.23;3.22;;;20.70;99.90;;;;;;4117414;28;20080;-64
2021/06/01 05:59:42;;;;;;;5.07;3.13;;;20.80;99.90;;;;;;4111341;28;20121;-62
2021/06/01 06:01:43;;;;;;;9.00;6.32;;;20.70;99.90;;;;;;4110830;28;20042;-64
2021/06/01 06:03:44;;;;;;;5.68;2.42;;;20.40;99.50;;;;;;4109465;28;20108;-64
2021/06/01 06:05:47;;;;;;;5.88;1.95;;;20.50;98.60;;;;;;4109330;28;20129;-64
2021/06/01 06:07:48;;;;;;;3.03;1.60;;;20.60;97.60;;;;;;4109514;28;20050;-62
2021/06/01 06:09:49;;;;;;;2.42;1.60;;;20.70;96.10;;;;;;4109313;28;20104;-65
2021/06/01 06:11:51;;;;;;;6.25;1.80;;;20.60;93.80;;;;;;4111698;28;20117;-63
2021/06/01 06:13:52;;;;;;;6.32;1.75;;;20.40;93.60;;;;;;4110570;28;20466;-61
2021/06/01 06:15:53;;;;;;;6.65;2.22;;;20.30;93.50;;;;;;4112034;28;20113;-65
2021/06/01 06:18:27;;;;;;;4.45;2.30;;;20.50;93.10;;;;;;4108418;28;20046;-64
2021/06/01 06:20:35;;;;;;;11.27;2.20;;;20.60;90.20;;;;;;4104261;28;20438;-62
2021/06/01 06:22:37;;;;;;;9.80;1.48;;;20.50;91.20;;;;;;4111387;28;20047;-62
2021/06/01 06:24:39;;;;;;;7.63;1.88;;;20.30;91.00;;;;;;4111289;28;20115;-63
2021/06/01 06:26:40;;;;;;;11.15;1.67;;;20.40;91.00;;;;;;4121921;28;20092;-62
2021/06/01 06:28:41;;;;;;;7.55;1.50;;;20.40;90.50;;;;;;4115639;28;20141;-65
2021/06/01 06:30:42;;;;;;;4.20;1.23;;;20.70;89.80;;;;;;4108323;28;20035;-62
2021/06/01 06:32:44;;;;;;;2.85;1.33;;;21.00;88.00;;;;;;4110469;28;20039;-62
2021/06/01 06:34:46;;;;;;;3.65;1.40;;;21.40;86.90;;;;;;4109602;28;20158;-62
2021/06/01 06:36:47;;;;;;;1.20;0.60;;;21.80;84.90;;;;;;4110947;28;20573;-63
2021/06/01 06:38:48;;;;;;;1.42;0.60;;;20.60;79.40;;;;;;4110495;28;20034;-65
2021/06/01 06:43:09;;;;;;;1.65;0.95;;;19.10;81.70;;;;;;4114439;28;20086;-62
2021/06/01 06:45:13;;;;;;;2.58;1.23;;;18.50;82.50;;;;;;4103707;28;20034;-63
2021/06/01 06:47:22;;;;;;;2.60;1.10;;;18.30;83.30;;;;;;4113195;28;20931;-63
2021/06/01 06:49:23;;;;;;;0.50;0.50;;;18.00;84.70;;;;;;4120131;28;20054;-61
2021/06/01 06:51:26;;;;;;;0.55;0.55;;;18.00;85.00;;;;;;4122084;28;20255;-61
2021/06/01 06:53:27;;;;;;;0.60;0.50;;;17.50;84.30;;;;;;4122446;28;20034;-61
2021/06/01 06:55:29;;;;;;;1.38;0.40;;;17.10;85.90;;;;;;4123237;28;20034;-62
2021/06/01 06:57:30;;;;;;;1.80;0.68;;;16.90;86.40;;;;;;4121882;28;20034;-63
2021/06/01 06:59:31;;;;;;;1.05;0.47;;;16.90;87.30;;;;;;4122268;28;20101;-63
2021/06/01 07:01:32;;;;;;;2.50;0.70;;;17.00;88.40;;;;;;4123889;28;20488;-61
2021/06/01 07:03:33;;;;;;;0.80;0.50;;;17.00;89.60;;;;;;4125706;28;20101;-66
2021/06/01 07:05:34;;;;;;;3.15;0.63;;;16.80;89.30;;;;;;4124672;28;20490;-68
2021/06/01 07:07:36;;;;;;;1.52;0.60;;;16.60;89.90;;;;;;4125869;28;20081;-64
2021/06/01 07:09:39;;;;;;;7.28;0.63;;;16.40;90.50;;;;;;4125050;28;20027;-66
2021/06/01 07:11:41;;;;;;;2.65;0.63;;;16.50;90.60;;;;;;4126271;28;20030;-64
2021/06/01 07:14:02;;;;;;;0.95;0.60;;;16.70;90.70;;;;;;4124919;28;20023;-66
2021/06/01 07:16:03;;;;;;;;;;;16.90;91.20;;;;;;4126603;28;20042;-64
2021/06/01 07:18:05;;;;;;;0.52;0.50;;;17.10;91.20;;;;;;4124917;28;19914;-64
2021/06/01 07:20:07;;;;;;;0.90;0.52;;;17.00;90.90;;;;;;4125075;28;20100;-66
2021/06/01 07:22:08;;;;;;;1.90;0.70;;;16.80;91.10;;;;;;4124686;28;20022;-65
2021/06/01 07:24:10;;;;;;;3.15;0.40;;;16.80;91.20;;;;;;4116838;28;20074;-64
2021/06/01 07:26:11;;;;;;;1.95;0.93;;;16.80;91.50;;;;;;4115369;28;20081;-65
2021/06/01 07:28:12;;;;;;;1.90;0.50;;;16.70;92.10;;;;;;4124875;28;20097;-63
2021/06/01 07:30:14;;;;;;;5.80;2.92;;;16.50;91.70;;;;;;4125377;28;20039;-63
2021/06/01 07:32:15;;;;;;;2.22;0.73;;;16.60;92.10;;;;;;4124454;28;20038;-64
2021/06/01 07:34:17;;;;;;;2.10;0.47;;;16.50;91.90;;;;;;4124035;28;20038;-64
2021/06/01 07:36:18;;;;;;;1.13;0.70;;;16.30;90.60;;;;;;4124720;28;20034;-64
2021/06/01 07:38:19;;;;;;;1.30;0.60;;;16.40;90.60;;;;;;4118701;28;20034;-63
2021/06/01 07:40:21;;;;;;;1.05;0.75;;;16.60;90.20;;;;;;4107464;28;20174;-69
2021/06/01 07:42:23;;;;;;;3.35;1.42;;;16.80;90.30;;;;;;4109283;28;20375;-65
2021/06/01 07:44:25;;;;;;;0.85;0.40;;;17.00;89.30;;;;;;4108493;28;20042;-65
2021/06/01 07:46:26;;;;;;;2.28;0.77;;;17.00;88.80;;;;;;4109764;28;20022;-64
2021/06/01 07:48:27;;;;;;;0.85;0.40;;;17.00;88.00;;;;;;4108263;28;20786;-64
2021/06/01 07:50:28;;;;;;;212.80;90.07;;;16.80;87.90;;;;;;4114983;28;20030;-65
2021/06/01 07:52:30;;;;;;;1.45;0.63;;;16.70;88.10;;;;;;4124405;28;20533;-64
2021/06/01 07:54:32;;;;;;;0.90;0.63;;;16.90;88.70;;;;;;4125444;28;20081;-64
2021/06/01 07:56:34;;;;;;;1.38;0.82;;;17.00;89.50;;;;;;4125147;28;20449;-66
2021/06/01 07:58:36;;;;;;;0.95;0.80;;;17.30;89.00;;;;;;4124898;28;20437;-65
2021/06/01 08:00:37;;;;;;;2.55;0.95;;;17.00;88.60;;;;;;4124429;28;20568;-66
2021/06/01 08:02:39;;;;;;;2.78;0.60;;;17.10;89.30;;;;;;4124581;28;20026;-66
2021/06/01 08:04:43;;;;;;;1.65;0.60;;;17.30;89.30;;;;;;4124281;28;20038;-65
2021/06/01 08:06:45;;;;;;;2.05;0.52;;;17.40;87.10;;;;;;4124329;28;20031;-65
2021/06/01 08:08:46;;;;;;;0.80;0.40;;;17.20;85.50;;;;;;4124398;28;20046;-64
2021/06/01 08:10:49;;;;;;;0.88;0.50;;;17.10;85.60;;;;;;4123432;28;20054;-66
2021/06/01 08:12:53;;;;;;;0.55;0.38;;;17.10;85.80;;;;;;4106275;28;20101;-66
2021/06/01 08:14:57;;;;;;;1.48;0.40;;;16.80;86.40;;;;;;4124218;28;20084;-68
2021/06/01 08:16:59;;;;;;;0.68;0.40;;;16.60;87.90;;;;;;4124924;28;20046;-67
2021/06/01 08:19:11;;;;;;;3.28;0.68;;;16.80;88.30;;;;;;4123211;28;20054;-65
2021/06/01 08:21:16;;;;;;;1.33;0.63;;;17.00;88.00;;;;;;4123781;28;20471;-62
2021/06/01 08:23:17;;;;;;;1.15;0.52;;;17.20;87.90;;;;;;4124018;28;20026;-63
2021/06/01 08:25:18;;;;;;;0.20;0.20;;;17.30;85.50;;;;;;4124752;28;20034;-67
2021/06/01 08:27:20;;;;;;;0.75;0.20;;;17.50;83.40;;;;;;4123837;28;20089;-65
2021/06/01 08:29:21;;;;;;;0.32;0.30;;;17.20;84.30;;;;;;4124970;28;20050;-65
2021/06/01 08:31:22;;;;;;;5.68;0.70;;;17.10;85.00;;;;;;4123740;28;20030;-65
2021/06/01 08:33:23;;;;;;;2.33;0.70;;;16.90;86.30;;;;;;4124765;28;20030;-65
2021/06/01 08:35:24;;;;;;;3.90;0.80;;;16.90;88.00;;;;;;4124226;28;20266;-64
2021/06/01 08:37:25;;;;;;;0.65;0.52;;;16.80;86.70;;;;;;4122892;28;20105;-64
2021/06/01 08:39:26;;;;;;;3.33;0.95;;;16.60;87.50;;;;;;4124869;28;20055;-65
2021/06/01 08:41:29;;;;;;;0.50;0.50;;;16.70;87.70;;;;;;4123057;28;20045;-63
2021/06/01 08:43:30;;;;;;;3.42;0.75;;;16.70;85.90;;;;;;4124320;28;20029;-64
2021/06/01 08:45:34;;;;;;;0.50;0.50;;;16.90;88.40;;;;;;4123904;28;20085;-65
2021/06/01 08:47:37;;;;;;;10.93;1.70;;;17.40;89.40;;;;;;4124395;28;20084;-64
2021/06/01 08:49:38;;;;;;;2.50;0.75;;;17.70;89.90;;;;;;4123129;28;20038;-64
2021/06/01 08:51:39;;;;;;;0.30;0.30;;;18.00;88.60;;;;;;4124643;28;20085;-64
2021/06/01 08:53:40;;;;;;;0.57;0.50;;;17.70;87.70;;;;;;4105467;28;20557;-66
2021/06/01 08:55:42;;;;;;;2.08;0.60;;;17.50;88.10;;;;;;4123908;28;20093;-65
2021/06/01 08:57:44;;;;;;;4.28;0.60;;;17.40;87.20;;;;;;4123777;28;20501;-64
2021/06/01 08:59:45;;;;;;;1.83;0.65;;;17.20;88.20;;;;;;4123973;28;20030;-64
2021/06/01 09:01:46;;;;;;;0.60;0.50;;;17.10;89.40;;;;;;4123059;28;20046;-64
2021/06/01 09:03:57;;;;;;;0.50;0.38;;;16.90;90.00;;;;;;4124200;28;20042;-64
2021/06/01 09:08:17;;;;;;;1.95;0.50;;;16.60;91.30;;;;;;4123977;28;20510;-64
2021/06/01 09:10:31;;;;;;;1.88;0.57;;;16.60;91.90;;;;;;4123465;28;20023;-64
2021/06/01 09:12:51;;;;;;;2.00;0.50;;;16.50;91.40;;;;;;4124423;28;20026;-65
2021/06/01 09:21:47;;;;;;;1.30;0.30;;;16.40;91.80;;;;;;4124380;28;20054;-66
2021/06/01 09:23:57;;;;;;;0.70;0.50;;;16.40;90.40;;;;;;4122848;28;20096;-64
2021/06/01 09:26:00;;;;;;;2.05;0.50;;;16.30;89.90;;;;;;4124357;28;20038;-65
2021/06/01 09:28:04;;;;;;;0.55;0.28;;;16.30;90.70;;;;;;4122937;28;20112;-64
2021/06/01 09:30:05;;;;;;;1.67;0.60;;;16.20;90.50;;;;;;4124023;28;20093;-65
2021/06/01 09:32:14;;;;;;;1.00;0.60;;;16.20;90.90;;;;;;4105016;28;20570;-66
2021/06/01 09:34:23;;;;;;;1.98;0.77;;;16.10;91.20;;;;;;4123695;28;20085;-65
2021/06/01 09:36:24;;;;;;;1.75;0.22;;;16.00;91.50;;;;;;4122348;28;20449;-65
2021/06/01 09:38:45;;;;;;;2.40;0.60;;;16.00;91.80;;;;;;4123636;28;20034;-64
2021/06/01 09:40:47;;;;;;;2.20;1.00;;;15.90;92.00;;;;;;4122318;28;20069;-65
2021/06/01 09:42:52;;;;;;;0.52;0.38;;;16.00;92.50;;;;;;4123976;28;20061;-65
2021/06/01 09:45:23;;;;;;;2.15;0.50;;;16.10;92.30;;;;;;4122236;28;20118;-65
2021/06/01 09:47:59;;;;;;;5.10;1.98;;;16.00;92.40;;;;;;4111136;28;20061;-64
2021/06/01 09:50:23;;;;;;;1.52;0.35;;;16.20;92.40;;;;;;4122094;28;20072;-64
2021/06/01 09:52:24;;;;;;;1.40;0.77;;;16.30;92.00;;;;;;4123796;28;20031;-66
2021/06/01 09:54:46;;;;;;;1.10;0.80;;;16.30;91.70;;;;;;4122208;28;20053;-65
2021/06/01 09:56:47;;;;;;;1.07;0.77;;;16.40;91.70;;;;;;4123958;28;21019;-64
2021/06/01 09:58:50;;;;;;;2.53;1.08;;;16.50;91.40;;;;;;4122752;28;20030;-65
2021/06/01 10:00:52;;;;;;;3.15;1.05;;;16.70;90.80;;;;;;4123260;28;20030;-65
2021/06/01 10:02:57;;;;;;;1.65;0.52;;;16.80;90.90;;;;;;4122178;28;20084;-66
2021/06/01 10:05:25;;;;;;;0.82;0.80;;;16.90;87.40;;;;;;4123460;28;20038;-65
2021/06/01 10:07:27;;;;;;;0.63;0.63;;;17.10;85.00;;;;;;4122261;28;20101;-65
2021/06/01 10:09:43;;;;;;;1.73;0.75;;;17.40;87.20;;;;;;4123516;28;20089;-65
2021/06/01 10:11:58;;;;;;;2.95;0.50;;;17.70;86.90;;;;;;4121199;28;20050;-65
2021/06/01 10:13:59;;;;;;;13.48;7.63;;;17.80;85.70;;;;;;4123286;28;20498;-65
2021/06/01 10:16:04;;;;;;;2.47;1.90;;;17.80;87.10;;;;;;4122570;28;20030;-65
2021/06/01 10:18:10;;;;;;;6.38;1.35;;;17.60;86.30;;;;;;4122575;28;20026;-65
2021/06/01 10:20:12;;;;;;;17.17;1.77;;;17.60;87.50;;;;;;4121009;28;20062;-65
2021/06/01 10:22:13;;;;;;;4.90;0.60;;;17.50;89.00;;;;;;4123192;28;20422;-64
2021/06/01 10:24:15;;;;;;;3.63;1.20;;;17.30;90.00;;;;;;4121396;28;20089;-65
2021/06/01 10:26:16;;;;;;;4.40;1.00;;;17.00;90.30;;;;;;4123524;28;20097;-64
2021/06/01 10:28:25;;;;;;;2.05;1.05;;;16.80;90.80;;;;;;4122517;28;20090;-65
2021/06/01 10:30:28;;;;;;;2.72;1.70;;;16.70;91.10;;;;;;4123142;28;20382;-66
2021/06/01 10:32:31;;;;;;;12.32;2.25;;;16.70;91.70;;;;;;4121886;28;20046;-65
2021/06/01 10:34:32;;;;;;;3.63;0.85;;;16.80;91.90;;;;;;4122974;28;20026;-65
2021/06/01 10:44:05;;;;;;;4.32;0.80;;;16.90;91.70;;;;;;4126147;28;20061;-65
2021/06/01 10:50:47;;;;;;;1.73;0.80;;;16.80;90.60;;;;;;4124694;28;20046;-63
2021/06/01 10:53:20;;;;;;;3.38;0.68;;;16.80;91.10;;;;;;4125616;28;20284;-63
2021/06/01 10:55:21;;;;;;;3.60;0.70;;;16.60;90.90;;;;;;4125272;28;20034;-63
2021/06/01 10:57:22;;;;;;;3.70;0.60;;;16.70;91.60;;;;;;4126377;28;20589;-65
2021/06/01 10:59:46;;;;;;;0.77;0.60;;;16.70;91.30;;;;;;4124984;28;20019;-64
2021/06/01 11:02:10;;;;;;;1.38;0.55;;;16.80;90.40;;;;;;4125895;28;20302;-64
2021/06/01 11:04:27;;;;;;;1.38;0.63;;;16.70;89.60;;;;;;4106843;28;20035;-64
2021/06/01 11:06:53;;;;;;;2.30;0.82;;;16.60;89.80;;;;;;4107616;28;20047;-64
2021/06/01 11:08:54;;;;;;;2.72;1.10;;;16.60;90.50;;;;;;4125432;28;20038;-64
2021/06/01 11:10:55;;;;;;;2.92;0.77;;;16.60;90.60;;;;;;4125347;28;20399;-64
2021/06/01 11:12:56;;;;;;;4.50;1.88;;;16.60;90.50;;;;;;4124892;28;20026;-64
2021/06/01 11:14:58;;;;;;;1.63;0.82;;;16.60;90.60;;;;;;4126451;28;20030;-64